Weather at Helipad military

Public forecast

Using degrees Celsius for public forecast. Weather courtesy of forecast.io.

Closest aviation weather report (METAR) to Helipad military

Closest report is Taranto-Grottaglie "Marcello Arlotta" Airport, 11.7 nm (21.7 km) SE.

2024/05/22 15:50 (retrieved 1 hour ago)

LIBG 221550Z 09007KT 040V120 CAVOK 26/11 Q1012

Closest aviation forecast (TAF) to Helipad military

Closest forecast is Brindisi Airport, 33.7 nm (62.5 km) E.

2024/05/22 12:00 (retrieved 5 hours ago)

TAF LIBR 221100Z 2212/2312 36013KT CAVOK BECMG 2215/2217 VRB05KT BECMG 2302/2304 33012KT